Friday, September 21, 2018, 9:38 PM EDT
Back to Local

KBAF, Westfield Barnes Municipal

Location: Westfield, MA, United States Lat: 42.167
Local Time: 9:38 PM EDT ( 1:38 GMT) Lon: -72.717
Time Zone: US/Eastern Elev: 272 ft

Show me the last for .
Show Decoded

2018-09-21 21:14 METAR KBAF 220114Z 17007KT 10SM OVC014 19/17 A2997 RMK AO2 T01940172 =
2018-09-21 20:56 METAR KBAF 220056Z 10004KT 10SM OVC110 23/23 A2999 RMK SLP157 T02330233 =
2018-09-21 20:53 METAR KBAF 220053Z 17008KT 10SM OVC015 19/17 A2996 RMK AO2 SLP147 T01940172 =
2018-09-21 19:53 METAR KBAF 212353Z 19007KT 10SM OVC018 19/16 A2997 RMK AO2 SLP149 T01890161
                 10206 20189 58029 =
2018-09-21 18:53 METAR KBAF 212253Z 18011KT 10SM OVC024 19/16 A3000 RMK AO2 SLP160 T01890161 =
2018-09-21 17:53 METAR KBAF 212153Z 19009KT 10SM OVC025 19/16 A3003 RMK AO2 SLP169 T01890156 =
2018-09-21 16:53 METAR KBAF 212053Z 18010KT 10SM OVC028 19/16 A3006 RMK AO2 SLP178 T01940156
                 56025 =
2018-09-21 15:53 METAR KBAF 211953Z 18012KT 10SM BKN021 BKN030 OVC032 19/16 A3008 RMK AO2 SLP187
                 T01940156 =
2018-09-21 14:53 METAR KBAF 211853Z 18011G19KT 10SM BKN026 OVC034 20/16 A3010 RMK AO2 SLP191
                 T02000156 =
2018-09-21 13:53 METAR KBAF 211753Z 18010KT 10SM BKN021 BKN030 OVC032 20/16 A3013 RMK AO2 SLP202
                 T02000156 10200 20161 58029 =
2018-09-21 12:53 METAR KBAF 211653Z 17007KT 10SM BKN021 BKN030 OVC037 19/16 A3017 RMK AO2 SLP216
                 T01890161 =
2018-09-21 11:53 METAR KBAF 211553Z 19005KT 10SM FEW015 OVC022 18/16 A3020 RMK AO2 SLP226
                 T01780156 =
2018-09-21 10:53 METAR KBAF 211453Z 17008KT 10SM BKN016 OVC022 17/15 A3022 RMK AO2 SLP233
                 T01720150 58018 =
2018-09-21 10:30 METAR KBAF 211430Z 17009KT 10SM BKN016 BKN020 OVC034 17/15 A3022 RMK AO2
                 T01720150 =
2018-09-21 10:21 METAR KBAF 211421Z 16009G15KT 10SM FEW016 SCT022 OVC034 17/15 A3023 RMK AO2
                 T01720150 =
2018-09-21 09:53 METAR KBAF 211353Z 16007KT 10SM BKN021 BKN026 OVC034 16/14 A3024 RMK AO2 SLP241
                 T01610144 =
2018-09-21 08:53 METAR KBAF 211253Z 17008KT 10SM OVC016 16/14 A3026 RMK AO2 SLP248 T01610144 =
2018-09-21 07:53 METAR KBAF 211153Z 18006KT 10SM OVC015 16/14 A3027 RMK AO2 SLP251 T01610144
                 10161 20156 53002 =
2018-09-21 06:53 METAR KBAF 211053Z 17004KT 10SM OVC017 16/14 A3027 RMK AO2 SLP251 T01610144 =
2018-09-21 05:53 METAR KBAF 210953Z AUTO 18004KT 10SM SCT013 OVC018 16/14 A3027 RMK AO2 SLP249
                 T01560144 =
2018-09-21 04:53 METAR KBAF 210853Z AUTO 00000KT 10SM OVC013 16/14 A3027 RMK AO2 SLP248 T01560144
                 55001 =
2018-09-21 04:03 METAR KBAF 210803Z AUTO 00000KT 10SM OVC014 16/14 A3026 RMK AO2 T01560144 =
2018-09-21 03:53 METAR KBAF 210753Z AUTO 18003KT 10SM OVC015 16/14 A3026 RMK AO2 SLP246 T01610139
                 =
2018-09-21 02:53 METAR KBAF 210653Z AUTO VRB03KT 10SM OVC017 16/14 A3027 RMK AO2 SLP249 T01610139
                 =
2018-09-21 01:53 METAR KBAF 210553Z AUTO 15003KT 10SM OVC023 16/14 A3027 RMK AO2 SLP249 T01610139
                 10178 20161 58004 =
2018-09-21 00:53 METAR KBAF 210453Z AUTO 15003KT 10SM OVC024 16/14 A3028 RMK AO2 SLP253 T01610139
                 402110150 =
2018-09-21 00:06 METAR KBAF 210406Z AUTO 18004KT 10SM BKN028 OVC035 17/13 A3028 RMK AO2 T01670133
                 =
2018-09-20 23:53 METAR KBAF 210353Z AUTO 17009KT 10SM BKN030 OVC039 17/14 A3027 RMK AO2 SLP250
                 T01670139 =
2018-09-20 23:28 METAR KBAF 210328Z AUTO 16008KT 10SM SCT023 BKN030 OVC046 17/14 A3027 RMK AO2
                 T01670139 =
2018-09-20 22:53 METAR KBAF 210253Z AUTO VRB05KT 10SM OVC022 17/14 A3028 RMK AO2 SLP254 T01720144
                 51014 =
2018-09-20 22:28 METAR KBAF 210228Z AUTO 16005KT 10SM BKN022 OVC034 17/14 A3027 RMK AO2 T01720144
                 =
2018-09-20 21:53 METAR KBAF 210153Z VRB04KT 10SM OVC039 17/14 A3027 RMK AO2 SLP249 T01720139 =

Support USWX by starting your Amazon purchase here.